Portada
METAR-TAF:

METAR-TAF

Aeroports :

Al-Ula, Aràbia Saudita

latitud: 26-29-00N, longitud: 038-07-01E, altitud: 624 m

Observació

L'informe es va fer fa 45 minuts, a les 17:00 UTC
Vent 5 kt del Est
Temperatura 22°C
Humitat 35%
Pressió 1017 hPa
Visibilitat 10 km o més
sense núvols per sota de 1500 mi sense presència de cumulonimbus.

METAR: OEAO 241700Z 08005KT CAVOK 22/06 Q1017

Hora: 20:45 (17:45 UTC)

Pronòstic

L'informe es va fer fa 6 hores i 45 minuts, a les 11:00 UTC
Pronòstic vàlid del 24 a les 12 UTC al 25 a les 18 UTC
Vent 10 kt del Sud
Visibilitat: 8000 m
Evolucionant progressivament
l' 24 a les 18 UTC al 24 a les 20 UTC
Vent 10 kt del Nord
Visibilitat 10 km o més
sense núvols per sota de 1500 mi sense presència de cumulonimbus.

TAF: OEAO 241100Z 2412/2518 18010KT 8000 NSC BECMG 2418/2420 36010KT CAVOK

Observacions i pronòstics meteorològics de més de 4000 aeroports (METAR i TAF).

Les estacions disponibles són els punts grocs i vermells al mapa.

Posi el ratolí al punt desitjat per veure el nom de l'estació.

Feu clic per veure les observacions i els pronòstics meteorològics.

Per canviar el mapa: feu clic els botons verds amb una creu de color negre per apropar; al botó verd amb un guió per allunyar la imatge; o en les fletxes verdes per a mapes adjacents.


METAR-TAF: